createdAt,value
2023-02-17T00:04:55.204Z,78.53
2023-02-17T00:09:57.041Z,78.44
2023-02-17T00:14:58.557Z,78.74
2023-02-17T00:20:00.271Z,78.76
2023-02-17T00:25:01.795Z,78.93
2023-02-17T00:30:04.041Z,78.59
2023-02-17T00:35:06.337Z,78.60
2023-02-17T00:40:08.654Z,78.91
2023-02-17T00:45:10.221Z,78.86
2023-02-17T00:50:11.822Z,78.63
2023-02-17T00:55:13.316Z,78.36
2023-02-17T01:00:15.931Z,78.53
2023-02-17T01:05:17.509Z,78.78
2023-02-17T01:10:19.092Z,78.67
2023-02-17T01:15:20.602Z,78.54
2023-02-17T01:20:22.129Z,78.60
2023-02-17T01:25:24.124Z,78.18
2023-02-17T01:30:25.898Z,78.82
2023-02-17T01:35:27.593Z,78.64
2023-02-17T01:40:30.198Z,78.57
2023-02-17T01:45:35.593Z,78.56
2023-02-17T01:50:45.913Z,78.40
2023-02-17T01:55:48.300Z,78.66
2023-02-17T02:00:53.314Z,78.64
2023-02-17T02:05:55.854Z,78.30
2023-02-17T02:10:57.365Z,78.38
2023-02-17T02:16:13.493Z,78.26
2023-02-17T02:21:54.092Z,78.27
2023-02-17T02:27:27.093Z,78.41
2023-02-17T02:32:46.882Z,78.30
2023-02-17T02:38:06.643Z,77.85
2023-02-17T02:43:09.431Z,78.20
2023-02-17T02:48:11.332Z,77.84
2023-02-17T02:53:35.992Z,78.20
2023-02-17T02:59:01.225Z,78.16
2023-02-17T03:04:14.248Z,77.90
2023-02-17T03:09:28.992Z,77.74
2023-02-17T03:14:38.432Z,77.95
2023-02-17T03:19:39.929Z,78.01
2023-02-17T03:24:41.496Z,77.78
2023-02-17T03:29:43.193Z,77.67
2023-02-17T03:34:44.714Z,77.46
2023-02-17T03:39:46.535Z,77.53
2023-02-17T03:44:48.123Z,78.00
2023-02-17T03:49:51.286Z,77.91
2023-02-17T03:54:53.283Z,77.68
2023-02-17T03:59:54.795Z,77.60
2023-02-17T04:04:56.338Z,77.86
2023-02-17T04:09:57.886Z,78.55
2023-02-17T04:14:59.385Z,78.61
2023-02-17T04:20:00.894Z,78.51
2023-02-17T04:25:02.432Z,78.40
2023-02-17T04:30:05.109Z,78.91
2023-02-17T04:35:07.460Z,78.83
2023-02-17T04:40:10.553Z,78.75
2023-02-17T04:45:13.151Z,79.50
2023-02-17T04:50:15.032Z,78.74
2023-02-17T04:55:16.601Z,79.31
2023-02-17T05:00:18.924Z,79.12
2023-02-17T05:05:21.190Z,79.11
2023-02-17T05:10:24.073Z,79.35
2023-02-17T05:15:25.700Z,79.56
2023-02-17T05:20:27.266Z,79.30
2023-02-17T05:25:29.414Z,79.33
2023-02-17T05:30:31.081Z,79.85
2023-02-17T05:35:35.199Z,80.10
2023-02-17T05:40:36.721Z,80.14
2023-02-17T05:45:38.606Z,80.12
2023-02-17T05:50:40.171Z,80.10
2023-02-17T05:55:41.705Z,80.03
2023-02-17T06:00:43.334Z,80.21
2023-02-17T06:05:45.869Z,80.29
2023-02-17T06:10:47.357Z,80.00
2023-02-17T06:15:48.950Z,80.32
2023-02-17T06:20:50.617Z,80.28
2023-02-17T06:25:53.497Z,80.00
2023-02-17T06:30:55.105Z,79.53
2023-02-17T06:35:56.741Z,79.88
2023-02-17T06:40:58.232Z,79.80
2023-02-17T06:45:59.807Z,79.92
2023-02-17T06:51:01.308Z,79.76
2023-02-17T06:56:02.841Z,79.97
2023-02-17T07:01:04.691Z,79.80
2023-02-17T07:06:06.472Z,79.50
2023-02-17T07:11:09.939Z,79.04
2023-02-17T07:16:13.198Z,78.77
2023-02-17T07:21:14.918Z,79.06
2023-02-17T07:26:16.493Z,78.60
2023-02-17T07:31:18.278Z,78.16
2023-02-17T07:36:20.236Z,78.02
2023-02-17T07:41:32.078Z,77.75
2023-02-17T07:46:33.742Z,77.79
2023-02-17T07:51:35.417Z,77.56
2023-02-17T07:56:36.880Z,76.85
2023-02-17T08:01:39.157Z,76.18
2023-02-17T08:06:40.822Z,75.91
2023-02-17T08:12:01.593Z,75.77
2023-02-17T08:17:03.112Z,75.33
2023-02-17T08:22:04.785Z,74.07
2023-02-17T08:27:06.380Z,74.32
2023-02-17T08:32:09.058Z,74.04
2023-02-17T08:37:11.567Z,74.07
2023-02-17T08:42:13.354Z,73.40
2023-02-17T08:47:15.267Z,72.79
2023-02-17T08:52:16.854Z,73.10
2023-02-17T08:57:19.145Z,73.66
2023-02-17T09:02:20.895Z,73.30
2023-02-17T09:07:23.038Z,72.38
2023-02-17T09:12:24.655Z,71.81
2023-02-17T09:17:26.276Z,71.95
2023-02-17T09:22:32.017Z,71.71
2023-02-17T09:27:34.112Z,72.18
2023-02-17T09:32:35.635Z,72.85
2023-02-17T09:37:37.248Z,72.80
2023-02-17T09:42:40.967Z,73.39
2023-02-17T09:47:48.142Z,73.50
2023-02-17T09:53:01.351Z,73.55
2023-02-17T09:58:28.777Z,73.27
2023-02-17T10:03:32.641Z,73.18
2023-02-17T10:09:03.538Z,72.80
2023-02-17T10:14:37.428Z,72.05
2023-02-17T10:19:47.518Z,72.12
2023-02-17T10:24:49.358Z,72.28
2023-02-17T10:30:06.918Z,72.75
2023-02-17T10:35:18.177Z,72.41
2023-02-17T10:40:25.966Z,71.61
2023-02-17T10:45:35.214Z,71.94
2023-02-17T10:50:38.306Z,72.43
2023-02-17T10:55:53.287Z,73.19
2023-02-17T11:00:56.930Z,74.39
2023-02-17T11:06:02.996Z,74.78
2023-02-17T11:11:07.808Z,75.14
2023-02-17T11:16:27.232Z,75.34
2023-02-17T11:21:30.351Z,76.22
2023-02-17T11:26:36.552Z,76.34
2023-02-17T11:31:38.401Z,76.21
2023-02-17T11:36:40.566Z,76.38
2023-02-17T11:41:42.154Z,77.11
2023-02-17T11:46:55.713Z,77.34
2023-02-17T11:52:03.007Z,76.75
2023-02-17T11:57:26.336Z,76.87
2023-02-17T12:02:46.770Z,76.30
2023-02-17T12:08:19.235Z,75.74
2023-02-17T12:13:56.478Z,75.53
2023-02-17T12:19:32.037Z,75.62
2023-02-17T12:24:55.377Z,75.79
2023-02-17T12:30:19.057Z,75.38
2023-02-17T12:35:27.158Z,75.55
2023-02-17T12:40:32.971Z,75.61
2023-02-17T12:45:40.384Z,76.32
2023-02-17T12:51:09.657Z,76.23
2023-02-17T12:56:31.341Z,75.80
2023-02-17T13:01:33.022Z,75.82
2023-02-17T13:06:41.426Z,76.64
2023-02-17T13:11:45.718Z,76.72
2023-02-17T13:16:47.707Z,77.20
2023-02-17T13:21:54.940Z,77.49
2023-02-17T13:26:56.698Z,77.73
2023-02-17T13:32:02.407Z,77.64
2023-02-17T13:37:32.020Z,78.10
2023-02-17T13:42:40.268Z,78.16
2023-02-17T13:47:42.877Z,78.62
2023-02-17T13:52:44.417Z,79.58
2023-02-17T13:57:51.238Z,79.49
2023-02-17T14:02:59.401Z,80.10
2023-02-17T14:08:13.381Z,81.07
2023-02-17T14:13:15.488Z,80.38
2023-02-17T14:18:29.701Z,80.75
2023-02-17T14:23:52.298Z,79.82
2023-02-17T14:29:02.825Z,80.94
2023-02-17T14:34:04.622Z,80.59
2023-02-17T14:39:09.293Z,81.13
2023-02-17T14:44:10.825Z,81.33
2023-02-17T14:49:12.317Z,81.30
2023-02-17T14:54:18.174Z,81.56
2023-02-17T14:59:19.710Z,81.54
2023-02-17T15:04:21.318Z,81.58
2023-02-17T15:09:30.819Z,80.85
2023-02-17T15:14:32.433Z,80.90
2023-02-17T15:19:34.165Z,80.95
2023-02-17T15:24:36.302Z,81.37
2023-02-17T15:29:37.818Z,81.07
2023-02-17T15:34:39.524Z,81.71
2023-02-17T15:39:41.098Z,81.50
2023-02-17T15:44:50.410Z,81.65
2023-02-17T15:49:51.902Z,82.22
2023-02-17T15:55:00.712Z,82.02
2023-02-17T16:00:02.524Z,82.04
2023-02-17T16:05:04.170Z,82.50
2023-02-17T16:10:07.224Z,82.30
2023-02-17T16:15:15.399Z,82.05
2023-02-17T16:20:21.085Z,82.32
2023-02-17T16:25:23.204Z,82.56
2023-02-17T16:30:30.527Z,82.49
2023-02-17T16:35:33.222Z,83.03
2023-02-17T16:40:37.125Z,83.17
2023-02-17T16:45:56.256Z,83.24
2023-02-17T16:50:57.949Z,83.22
2023-02-17T16:55:59.542Z,83.51
2023-02-17T17:01:01.034Z,82.93
2023-02-17T17:06:15.443Z,83.19
2023-02-17T17:11:19.875Z,83.95
2023-02-17T17:16:26.196Z,83.48
2023-02-17T17:21:28.572Z,83.22
2023-02-17T17:26:36.518Z,83.16
2023-02-17T17:31:39.438Z,83.26
2023-02-17T17:36:46.389Z,82.96
2023-02-17T17:41:48.296Z,83.51
2023-02-17T17:46:50.030Z,83.32
2023-02-17T17:51:51.532Z,83.40
2023-02-17T17:56:53.489Z,83.55
2023-02-17T18:01:54.996Z,83.73
2023-02-17T18:06:57.797Z,83.75
2023-02-17T18:12:04.442Z,83.56
2023-02-17T18:17:08.281Z,83.92
2023-02-17T18:22:09.789Z,83.80
2023-02-17T18:27:11.832Z,83.99
2023-02-17T18:32:13.369Z,83.94
2023-02-17T18:37:15.990Z,83.82
2023-02-17T18:42:17.560Z,84.56
2023-02-17T18:47:20.191Z,85.09
2023-02-17T18:52:21.855Z,84.64
2023-02-17T18:57:23.376Z,84.52
2023-02-17T19:02:25.984Z,85.46
2023-02-17T19:07:27.897Z,84.72
2023-02-17T19:12:30.650Z,85.27
2023-02-17T19:17:32.236Z,84.90
2023-02-17T19:22:37.631Z,84.80
2023-02-17T19:27:42.147Z,85.17
2023-02-17T19:32:44.138Z,85.23
2023-02-17T19:37:45.684Z,85.08
2023-02-17T19:42:47.593Z,85.68
2023-02-17T19:47:49.074Z,85.46
2023-02-17T19:52:50.737Z,85.57
2023-02-17T19:57:53.198Z,85.62
2023-02-17T20:02:54.686Z,85.77
2023-02-17T20:07:57.267Z,85.35
2023-02-17T20:12:58.809Z,85.50
2023-02-17T20:18:00.376Z,85.43
2023-02-17T20:23:01.966Z,85.34
2023-02-17T20:28:03.586Z,85.55
2023-02-17T20:33:05.213Z,85.23
2023-02-17T20:38:08.004Z,85.48
2023-02-17T20:43:12.362Z,85.39
2023-02-17T20:48:13.973Z,85.55
2023-02-17T20:53:15.511Z,85.00
2023-02-17T20:58:17.370Z,85.16
2023-02-17T21:03:19.040Z,85.30
2023-02-17T21:08:20.616Z,84.99
2023-02-17T21:13:23.000Z,85.23
2023-02-17T21:18:24.568Z,84.71
2023-02-17T21:23:26.091Z,84.41
2023-02-17T21:28:27.654Z,84.32
2023-02-17T21:33:29.352Z,84.25
2023-02-17T21:38:30.913Z,84.42
2023-02-17T21:43:51.665Z,84.39
2023-02-17T21:48:53.677Z,84.70
2023-02-17T21:53:55.752Z,84.53
2023-02-17T21:58:57.320Z,84.91
2023-02-17T22:03:58.906Z,85.00
2023-02-17T22:09:01.017Z,85.70
2023-02-17T22:14:05.590Z,85.69
2023-02-17T22:19:08.821Z,83.36
2023-02-17T22:24:10.616Z,82.67
2023-02-17T22:29:12.144Z,82.39
2023-02-17T22:34:14.701Z,81.64
2023-02-17T22:39:16.373Z,81.50
2023-02-17T22:44:18.348Z,81.34
2023-02-17T22:49:19.853Z,81.19
2023-02-17T22:54:21.469Z,80.82
2023-02-17T22:59:23.098Z,80.81
2023-02-17T23:04:24.863Z,80.83
2023-02-17T23:09:26.414Z,80.52
2023-02-17T23:14:34.837Z,79.60
2023-02-17T23:19:37.299Z,76.47
2023-02-17T23:24:38.812Z,76.33
2023-02-17T23:29:41.336Z,75.17
2023-02-17T23:34:42.844Z,74.35
2023-02-17T23:39:44.427Z,75.26
2023-02-17T23:44:45.902Z,75.27
2023-02-17T23:49:47.423Z,75.30
2023-02-17T23:54:48.918Z,73.42
2023-02-17T23:59:50.446Z,71.90
